Time;durP1;ratioP1;P1;durP2;ratioP2;P2;SDS_P1;SDS_P2;PMS_P1;PMS_P2;Temp;Humidity;BMP_temperature;BMP_pressure;BME280_temperature;BME280_humidity;BME280_pressure;Samples;Min_cycle;Max_cycle;Signal;HPM_P1;HPM_P2
2022/07/28 00:00:34;;;;;;;;;17.50;14.50;;;;;21.98;38.12;101351.88;4963108;28;45572;-59
2022/07/28 00:03:00;;;;;;;;;2.00;2.00;;;;;21.98;38.11;101349.19;4962741;28;46187;-59
2022/07/28 00:05:26;;;;;;;;;2.00;2.00;;;;;21.96;38.11;101345.81;4961462;28;45258;-59
2022/07/28 00:07:51;;;;;;;;;2.00;2.00;;;;;21.93;38.16;101338.03;4962602;28;45356;-59
2022/07/28 00:10:17;;;;;;;;;3.75;2.00;;;;;21.88;38.14;101332.31;4962838;28;45645;-59
2022/07/28 00:12:43;;;;;;;;;2.00;2.00;;;;;21.88;38.36;101336.81;4962750;28;46173;-59
2022/07/28 00:15:09;;;;;;;;;1.00;1.00;;;;;21.85;38.31;101335.28;4962727;28;45448;-59
2022/07/28 00:17:35;;;;;;;;;2.00;2.00;;;;;21.84;38.53;101338.09;4962765;28;45530;-59
2022/07/28 00:20:01;;;;;;;;;2.75;1.75;;;;;21.80;38.36;101340.22;4962849;28;45259;-59
2022/07/28 00:22:26;;;;;;;;;5.00;2.75;;;;;21.77;38.24;101334.34;4962593;28;45342;-59
2022/07/28 00:24:52;;;;;;;;;2.50;2.00;;;;;21.76;38.58;101335.31;4962435;28;45414;-59
2022/07/28 00:27:17;;;;;;;;;2.00;2.00;;;;;21.73;38.49;101320.38;4962794;28;45267;-59
2022/07/28 00:29:43;;;;;;;;;1.75;1.75;;;;;21.74;38.55;101324.75;4962552;28;45620;-60
2022/07/28 00:32:09;;;;;;;;;1.75;1.75;;;;;21.72;38.70;101322.22;4962636;28;46267;-60
2022/07/28 00:34:34;;;;;;;;;2.00;2.00;;;;;21.69;38.64;101324.34;4962344;28;45234;-60
2022/07/28 00:37:00;;;;;;;;;1.25;1.25;;;;;21.69;38.87;101310.94;4959962;28;45456;-60
2022/07/28 00:39:26;;;;;;;;;3.50;2.00;;;;;21.68;38.62;101306.56;4947768;28;45461;-60
2022/07/28 00:41:51;;;;;;;;;1.75;1.75;;;;;21.65;38.96;101310.41;4962538;28;45357;-60
2022/07/28 00:44:17;;;;;;;;;3.25;1.75;;;;;21.62;38.82;101304.47;4962275;28;45228;-60
2022/07/28 00:46:43;;;;;;;;;3.75;3.25;;;;;21.59;38.92;101311.00;4962485;28;45315;-60
2022/07/28 00:49:09;;;;;;;;;2.75;2.75;;;;;21.59;38.69;101299.44;4962385;28;45179;-60
2022/07/28 00:51:35;;;;;;;;;2.75;2.75;;;;;21.58;39.03;101295.91;4961908;28;45871;-60
2022/07/28 00:54:01;;;;;;;;;1.25;1.25;;;;;21.58;39.08;101303.09;4961444;28;45338;-60
2022/07/28 00:56:27;;;;;;;;;4.25;2.50;;;;;21.56;39.15;101294.34;4962550;28;45349;-58
2022/07/28 00:58:52;;;;;;;;;2.50;2.50;;;;;21.52;39.31;101291.13;4962109;28;45444;-59
2022/07/28 01:01:18;;;;;;;;;4.00;3.25;;;;;21.49;39.12;101288.75;4962260;28;45329;-59
2022/07/28 01:03:49;;;;;;;;;4.00;3.75;;;;;21.45;39.30;101290.03;4962155;28;45375;-61
2022/07/28 01:06:35;;;;;;;;;2.00;2.00;;;;;21.41;39.36;101289.50;4962271;28;45354;-59
2022/07/28 01:09:02;;;;;;;;;3.25;3.00;;;;;21.40;39.34;101287.78;4962176;28;45435;-59
2022/07/28 01:11:33;;;;;;;;;3.75;3.00;;;;;21.38;39.52;101281.72;4961704;28;46176;-59
2022/07/28 01:14:40;;;;;;;;;4.00;4.00;;;;;21.32;39.44;101278.78;4962014;28;45230;-59
2022/07/28 01:17:24;;;;;;;;;3.25;2.50;;;;;21.31;39.66;101280.63;4956509;28;45902;-59
2022/07/28 01:20:10;;;;;;;;;3.25;3.25;;;;;21.27;39.76;101278.38;4962029;28;45275;-59
2022/07/28 01:22:57;;;;;;;;;3.00;3.00;;;;;21.24;39.71;101273.28;4961664;28;45489;-59
2022/07/28 01:25:46;;;;;;;;;6.00;3.75;;;;;21.23;39.45;101268.94;4961705;28;45318;-59
2022/07/28 01:28:41;;;;;;;;;2.00;1.75;;;;;21.19;39.85;101274.59;4961928;28;45433;-59
2022/07/28 01:31:10;;;;;;;;;3.00;3.00;;;;;21.17;40.01;101267.66;4961745;28;45464;-59
2022/07/28 01:33:41;;;;;;;;;4.00;3.00;;;;;21.16;40.10;101279.38;4961710;28;46239;-59
2022/07/28 01:36:15;;;;;;;;;3.50;2.75;;;;;21.15;39.87;101275.03;4960230;28;45401;-60
2022/07/28 01:38:42;;;;;;;;;2.75;2.50;;;;;21.15;39.82;101269.66;4945735;28;45462;-59
2022/07/28 01:41:13;;;;;;;;;3.00;2.75;;;;;21.13;40.19;101277.84;4960410;28;45485;-60
2022/07/28 01:43:43;;;;;;;;;4.50;3.00;;;;;21.11;39.90;101265.59;4961650;28;45447;-59
2022/07/28 01:46:10;;;;;;;;;2.50;2.00;;;;;21.11;40.11;101268.28;4961450;28;45398;-59
2022/07/28 01:48:39;;;;;;;;;2.75;2.75;;;;;21.10;40.14;101269.28;4961632;28;45409;-59
2022/07/28 01:51:06;;;;;;;;;2.75;2.75;;;;;21.07;39.85;101264.19;4961842;28;45460;-58
2022/07/28 01:53:33;;;;;;;;;0.75;0.75;;;;;21.07;40.21;101258.84;4961296;28;45311;-58
2022/07/28 01:56:02;;;;;;;;;2.00;2.00;;;;;21.06;40.06;101266.03;4961459;28;45215;-58
2022/07/28 01:58:30;;;;;;;;;1.75;1.50;;;;;21.02;40.27;101261.13;4961691;28;45366;-59
2022/07/28 02:00:57;;;;;;;;;4.00;2.00;;;;;21.03;40.36;101260.13;4961587;28;45520;-58
2022/07/28 02:03:26;;;;;;;;;1.50;1.50;;;;;21.02;40.15;101255.78;4961489;28;45379;-58
2022/07/28 02:05:55;;;;;;;;;0.75;0.75;;;;;21.00;40.26;101253.22;4964819;28;45393;-58
2022/07/28 02:08:22;;;;;;;;;1.75;1.75;;;;;21.00;40.25;101255.88;4964594;28;45378;-59
2022/07/28 02:13:35;;;;;;;;;1.75;1.75;;;;;21.00;40.09;101253.22;4964609;28;45426;-58
2022/07/28 02:16:04;;;;;;;;;2.50;2.00;;;;;21.01;40.38;101254.91;4964519;28;45367;-59
2022/07/28 02:18:32;;;;;;;;;3.25;2.00;;;;;21.03;40.33;101249.41;4964659;28;45497;-58
2022/07/28 02:20:59;;;;;;;;;1.75;1.75;;;;;21.03;40.56;101249.41;4963405;28;45256;-59
2022/07/28 02:23:26;;;;;;;;;2.00;2.00;;;;;21.01;40.42;101241.50;4964297;28;45281;-58
2022/07/28 02:25:52;;;;;;;;;0.75;0.75;;;;;21.01;40.30;101241.50;4964405;28;45376;-58
2022/07/28 02:28:20;;;;;;;;;3.00;2.00;;;;;21.02;40.43;101239.69;4964451;28;45378;-58
2022/07/28 02:30:51;;;;;;;;;2.00;2.00;;;;;21.02;40.17;101237.03;4964728;28;45385;-59
2022/07/28 02:33:22;;;;;;;;;2.50;2.25;;;;;21.04;40.42;101235.88;4963084;28;48432;-59
2022/07/28 02:36:25;;;;;;;;;2.00;2.00;;;;;21.04;40.54;101229.66;4964229;28;45298;-59
2022/07/28 02:38:55;;;;;;;;;1.75;1.75;;;;;21.05;40.42;101234.03;4932115;28;45398;-59
2022/07/28 02:41:31;;;;;;;;;2.00;2.00;;;;;21.02;40.50;101228.97;4964541;28;45243;-59
2022/07/28 02:44:00;;;;;;;;;1.50;1.00;;;;;20.98;40.68;101230.25;4964108;28;45413;-59
2022/07/28 02:46:39;;;;;;;;;1.75;1.75;;;;;20.96;40.71;101226.88;4964083;28;45239;-59
2022/07/28 02:49:11;;;;;;;;;2.00;1.00;;;;;20.94;40.58;101224.34;4964182;28;45458;-59
2022/07/28 02:51:39;;;;;;;;;1.75;1.75;;;;;20.92;40.75;101219.13;4964286;28;45319;-59
2022/07/28 02:54:05;;;;;;;;;2.00;2.00;;;;;20.91;40.74;101221.94;4963955;28;46133;-59
2022/07/28 02:56:32;;;;;;;;;3.00;2.00;;;;;20.90;40.78;101221.09;4964028;28;45306;-59
2022/07/28 02:58:59;;;;;;;;;1.00;1.00;;;;;20.89;40.58;101221.25;4964052;28;45256;-59
2022/07/28 03:01:26;;;;;;;;;1.00;1.00;;;;;20.87;40.47;101225.94;4962798;28;45485;-60
2022/07/28 03:03:52;;;;;;;;;3.75;2.00;;;;;20.83;40.86;101230.72;4963842;28;45382;-59
2022/07/28 03:06:21;;;;;;;;;1.00;1.00;;;;;20.79;40.90;101229.34;4963686;28;45278;-59
2022/07/28 03:08:46;;;;;;;;;1.25;1.25;;;;;20.77;40.77;101225.94;4963923;28;45376;-59
2022/07/28 03:11:13;;;;;;;;;3.75;2.25;;;;;20.78;40.89;101229.47;4964026;28;45492;-59
2022/07/28 03:13:39;;;;;;;;;1.75;1.75;;;;;20.76;40.69;101229.59;4963772;28;45357;-59
2022/07/28 03:16:05;;;;;;;;;2.00;2.00;;;;;20.73;40.94;101224.56;4962717;28;45294;-58
2022/07/28 03:18:31;;;;;;;;;3.50;2.00;;;;;20.71;40.94;101231.88;4963662;28;45346;-59
2022/07/28 03:20:57;;;;;;;;;2.00;2.00;;;;;20.69;40.94;101231.16;4963858;28;45223;-59
2022/07/28 03:23:30;;;;;;;;;3.25;3.25;;;;;20.70;41.41;101238.25;4963148;28;46527;-59
2022/07/28 03:26:03;;;;;;;;;1.75;0.75;;;;;20.71;41.15;101244.44;4963561;28;45340;-58
2022/07/28 03:28:31;;;;;;;;;2.25;2.25;;;;;20.72;41.02;101236.25;4963685;28;45339;-59
2022/07/28 03:31:02;;;;;;;;;1.00;0.75;;;;;20.71;41.37;101239.06;4963463;28;45227;-59
2022/07/28 03:33:28;;;;;;;;;1.75;1.75;;;;;20.65;41.39;101229.78;4963562;28;46293;-59
2022/07/28 03:35:57;;;;;;;;;2.25;1.50;;;;;20.62;41.11;101225.56;4963282;28;45254;-59
2022/07/28 03:38:34;;;;;;;;;3.00;1.50;;;;;20.61;41.36;101229.22;4949763;28;45239;-58
2022/07/28 03:41:02;;;;;;;;;3.00;1.75;;;;;20.61;41.54;101226.53;4961192;28;45402;-58
2022/07/28 03:43:28;;;;;;;;;2.50;0.75;;;;;20.62;41.75;101227.41;4963267;28;46185;-58
2022/07/28 03:45:54;;;;;;;;;1.75;1.75;;;;;20.59;41.09;101222.31;4963200;28;45466;-58
2022/07/28 03:48:23;;;;;;;;;2.50;1.00;;;;;20.59;41.58;101222.31;4963429;28;45312;-58
2022/07/28 03:50:48;;;;;;;;;2.00;2.00;;;;;20.59;41.03;101225.00;4963379;28;45218;-59
2022/07/28 03:53:23;;;;;;;;;3.75;2.75;;;;;20.56;41.52;101220.78;4977886;28;45279;-59
2022/07/28 03:55:52;;;;;;;;;3.00;3.00;;;;;20.54;41.53;101219.25;4963131;28;45401;-59
2022/07/28 03:58:24;;;;;;;;;2.25;1.25;;;;;20.49;41.57;101221.50;4963306;28;45363;-59
2022/07/28 04:00:50;;;;;;;;;1.50;1.50;;;;;20.46;41.44;101219.97;4963239;28;45394;-58
2022/07/28 04:03:19;;;;;;;;;2.00;2.00;;;;;20.43;41.63;101222.03;4962748;28;46255;-59
2022/07/28 04:05:46;;;;;;;;;1.50;1.50;;;;;20.42;41.74;101223.88;4962499;28;45289;-58
2022/07/28 04:08:11;;;;;;;;;1.25;1.25;;;;;20.43;41.59;101222.03;4962653;28;45188;-58
2022/07/28 04:10:37;;;;;;;;;3.75;1.75;;;;;20.41;41.74;101230.22;4963013;28;45244;-59
2022/07/28 04:13:03;;;;;;;;;3.25;2.00;;;;;20.39;41.71;101229.53;4962929;28;46426;-58
2022/07/28 04:15:31;;;;;;;;;3.25;1.75;;;;;20.35;42.15;101220.91;4962887;28;45496;-59
2022/07/28 04:17:57;;;;;;;;;3.50;2.25;;;;;20.35;42.25;101225.44;4962695;28;45316;-58
2022/07/28 04:20:23;;;;;;;;;2.50;1.75;;;;;20.30;41.78;101220.53;4962908;28;45410;-59
2022/07/28 04:22:50;;;;;;;;;1.75;1.50;;;;;20.30;42.00;101227.66;4962492;28;45445;-58
2022/07/28 04:25:18;;;;;;;;;3.00;3.00;;;;;20.30;41.91;101223.19;4962841;28;45285;-59
2022/07/28 04:27:44;;;;;;;;;3.00;2.25;;;;;20.29;42.11;101218.81;4962633;28;45314;-59
2022/07/28 04:30:16;;;;;;;;;3.50;2.75;;;;;20.28;42.17;101227.81;4962942;28;45414;-59
2022/07/28 04:32:45;;;;;;;;;9.25;3.75;;;;;20.26;42.33;101215.56;4962189;28;45270;-59
2022/07/28 04:35:12;;;;;;;;;4.00;2.00;;;;;20.26;42.35;101224.44;4962396;28;45385;-60
2022/07/28 04:37:38;;;;;;;;;3.25;2.25;;;;;20.25;42.24;101222.75;4954709;28;45411;-60
2022/07/28 04:40:06;;;;;;;;;3.00;2.00;;;;;20.26;42.84;101220.94;4952922;28;45299;-60
2022/07/28 04:42:32;;;;;;;;;4.50;3.00;;;;;20.24;42.82;101220.22;4960864;28;46608;-59
2022/07/28 04:44:58;;;;;;;;;13.50;4.50;;;;;20.22;42.46;101215.03;4962219;28;45219;-59
2022/07/28 04:47:23;;;;;;;;;3.00;3.00;;;;;20.23;43.16;101210.53;4962230;28;45360;-59
2022/07/28 04:49:49;;;;;;;;;4.25;4.25;;;;;20.24;43.02;101215.72;4962575;28;45237;-60
2022/07/28 04:52:15;;;;;;;;;5.00;2.50;;;;;20.25;43.01;101209.38;4961858;28;45408;-60
2022/07/28 04:54:41;;;;;;;;;3.00;2.75;;;;;20.25;42.76;101205.88;4962030;28;45414;-60
2022/07/28 04:57:07;;;;;;;;;3.25;1.50;;;;;20.25;42.93;101214.75;4962156;28;45246;-60
2022/07/28 04:59:34;;;;;;;;;2.25;2.25;;;;;20.22;42.74;101209.69;4962294;28;45428;-59
2022/07/28 05:02:00;;;;;;;;;4.25;2.50;;;;;20.22;43.02;101212.34;4961824;28;45337;-59
2022/07/28 05:04:26;;;;;;;;;1.50;1.50;;;;;20.23;43.09;101210.53;4960645;28;45249;-60
2022/07/28 05:06:51;;;;;;;;;3.00;2.25;;;;;20.19;42.84;101215.28;4961929;28;45359;-60
2022/07/28 05:09:17;;;;;;;;;1.00;1.00;;;;;20.17;42.71;101206.56;4962499;28;45245;-60
2022/07/28 05:11:43;;;;;;;;;3.00;3.00;;;;;20.15;43.14;101205.03;4961925;28;46018;-59
2022/07/28 05:14:08;;;;;;;;;2.75;2.25;;;;;20.13;42.80;101209.66;4962115;28;45397;-59
2022/07/28 05:16:34;;;;;;;;;2.50;2.50;;;;;20.10;42.75;101204.59;4961827;28;45528;-59
2022/07/28 05:19:00;;;;;;;;;3.25;1.25;;;;;20.09;42.93;101211.78;4962160;28;45380;-59
2022/07/28 05:21:25;;;;;;;;;2.50;0.75;;;;;20.06;43.05;101212.91;4961477;28;45358;-59
2022/07/28 05:23:50;;;;;;;;;3.50;3.50;;;;;20.04;42.82;101216.69;4962113;28;45337;-59
2022/07/28 05:26:16;;;;;;;;;2.50;2.50;;;;;20.01;42.83;101215.16;4961816;28;45368;-59
2022/07/28 05:28:41;;;;;;;;;3.00;3.00;;;;;19.99;43.33;101211.78;4962045;28;45290;-60
2022/07/28 05:31:07;;;;;;;;;3.50;2.75;;;;;20.01;43.07;101223.19;4961584;28;45598;-58
2022/07/28 05:33:34;;;;;;;;;4.75;2.75;;;;;20.02;42.87;101216.84;4961814;28;45495;-58
2022/07/28 05:35:59;;;;;;;;;5.50;2.50;;;;;20.05;43.27;101215.72;4961324;28;45390;-59
2022/07/28 05:38:26;;;;;;;;;2.00;2.00;;;;;20.07;43.32;101214.59;4947637;28;45425;-60
2022/07/28 05:40:52;;;;;;;;;2.25;2.25;;;;;20.08;43.49;101204.75;4961346;28;45257;-59
2022/07/28 05:43:18;;;;;;;;;3.00;3.00;;;;;20.13;43.06;101212.34;4965322;28;45184;-60
2022/07/28 05:45:45;;;;;;;;;2.25;2.25;;;;;20.18;43.29;101213.59;4965182;28;45508;-60
2022/07/28 05:48:10;;;;;;;;;2.00;2.00;;;;;20.22;43.12;101215.03;4965245;28;45413;-59
2022/07/28 05:50:36;;;;;;;;;2.25;2.25;;;;;20.25;43.49;101212.06;4964773;28;45430;-60
2022/07/28 05:53:01;;;;;;;;;4.25;2.50;;;;;20.29;43.48;101212.59;4964572;28;45314;-59
2022/07/28 05:55:27;;;;;;;;;1.75;1.75;;;;;20.31;43.33;101210.66;4964928;28;45366;-60
2022/07/28 05:57:53;;;;;;;;;4.75;2.50;;;;;20.33;43.01;101204.16;4965137;28;45612;-60
2022/07/28 06:00:21;;;;;;;;;4.00;3.25;;;;;20.38;43.31;101208.22;4964644;28;46053;-60
2022/07/28 06:02:48;;;;;;;;;3.00;3.00;;;;;20.38;43.17;101208.22;4964953;28;45228;-60
2022/07/28 06:05:18;;;;;;;;;6.75;3.00;;;;;20.39;43.17;101209.94;4964855;28;45223;-60
2022/07/28 06:07:45;;;;;;;;;6.50;3.00;;;;;20.38;43.05;101206.44;4964694;28;45324;-60
2022/07/28 06:10:13;;;;;;;;;4.50;4.50;;;;;20.44;42.89;101210.38;4964562;28;45264;-60
2022/07/28 06:12:41;;;;;;;;;4.00;3.00;;;;;20.47;43.10;101210.09;4964856;28;45217;-59
2022/07/28 06:15:11;;;;;;;;;2.75;2.75;;;;;20.52;43.07;101219.38;4964670;28;45255;-58
2022/07/28 06:17:37;;;;;;;;;7.50;4.50;;;;;20.51;43.08;101215.00;4964415;28;45518;-59
2022/07/28 06:20:03;;;;;;;;;5.00;4.00;;;;;20.55;43.05;101215.59;4964387;28;45176;-59
2022/07/28 06:22:28;;;;;;;;;6.75;4.00;;;;;20.59;42.78;101220.47;4964515;28;45278;-59
2022/07/28 06:24:55;;;;;;;;;8.25;5.25;;;;;20.65;42.96;101212.88;4964398;28;45422;-60
2022/07/28 06:27:20;;;;;;;;;4.50;3.00;;;;;20.66;43.17;101215.41;4964804;28;45334;-59
2022/07/28 06:29:47;;;;;;;;;5.50;3.50;;;;;20.71;43.47;101213.16;4964303;28;45897;-59
2022/07/28 06:32:14;;;;;;;;;2.50;2.50;;;;;20.74;42.99;101215.53;4964468;28;45237;-59
2022/07/28 06:34:40;;;;;;;;;4.50;4.50;;;;;20.76;42.80;101221.56;4964259;28;45333;-60
2022/07/28 06:37:05;;;;;;;;;5.00;2.50;;;;;20.83;42.43;101214.66;4960846;28;45813;-60
2022/07/28 06:39:30;;;;;;;;;1.75;1.75;;;;;20.83;43.09;101222.69;4961706;28;46151;-59
2022/07/28 06:41:56;;;;;;;;;5.75;4.00;;;;;20.86;42.74;101213.53;4964247;28;45207;-60
2022/07/28 06:44:21;;;;;;;;;6.50;3.50;;;;;20.88;42.54;101216.91;4964325;28;45199;-59
2022/07/28 06:46:47;;;;;;;;;4.75;4.50;;;;;20.95;42.79;101214.50;4964246;28;45251;-60
2022/07/28 06:49:12;;;;;;;;;5.00;3.50;;;;;21.00;42.87;101218.38;4964236;28;45207;-60
2022/07/28 06:51:38;;;;;;;;;4.50;3.25;;;;;21.06;42.92;101219.66;4962971;28;45314;-60
2022/07/28 06:54:03;;;;;;;;;2.25;2.25;;;;;21.11;42.65;101218.22;4964084;28;45237;-60
2022/07/28 06:56:29;;;;;;;;;3.00;3.00;;;;;21.14;42.67;101225.09;4964112;28;45546;-60
2022/07/28 06:58:54;;;;;;;;;3.75;3.75;;;;;21.12;42.60;101224.44;4963879;28;45231;-64
2022/07/28 07:01:20;;;;;;;;;3.25;3.25;;;;;21.16;42.81;101228.47;4963906;28;45371;-59
2022/07/28 07:03:45;;;;;;;;;4.00;3.75;;;;;21.19;42.55;101225.53;4964093;28;45326;-60
2022/07/28 07:06:11;;;;;;;;;5.00;3.00;;;;;21.22;42.79;101219.84;4963727;28;45546;-60
2022/07/28 07:08:37;;;;;;;;;3.50;3.50;;;;;21.33;42.50;101218.84;4963617;28;45457;-59
2022/07/28 07:11:02;;;;;;;;;6.00;3.75;;;;;21.41;42.73;101221.66;4963812;28;45573;-59
2022/07/28 07:13:28;;;;;;;;;2.50;2.50;;;;;21.51;42.57;101229.63;4963850;28;45446;-58
2022/07/28 07:15:53;;;;;;;;;4.75;3.00;;;;;21.56;42.39;101230.84;4963762;28;45386;-58
2022/07/28 07:18:20;;;;;;;;;3.75;3.25;;;;;21.56;41.85;101221.97;4963292;28;46027;-58
2022/07/28 07:20:45;;;;;;;;;5.00;4.00;;;;;21.60;42.22;101226.03;4963552;28;45182;-58
2022/07/28 07:23:11;;;;;;;;;6.00;3.00;;;;;21.65;42.13;101226.44;4963380;28;45229;-58
2022/07/28 07:25:37;;;;;;;;;5.75;3.50;;;;;21.71;42.17;101229.34;4963614;28;45428;-58
2022/07/28 07:28:03;;;;;;;;;4.50;3.50;;;;;21.80;41.81;101230.25;4963675;28;45400;-59
2022/07/28 07:30:28;;;;;;;;;4.00;3.75;;;;;21.90;41.65;101227.53;4963745;28;45255;-59
2022/07/28 07:32:54;;;;;;;;;4.50;4.50;;;;;21.95;41.80;101226.06;4963886;28;45274;-59
2022/07/28 07:35:19;;;;;;;;;3.00;3.00;;;;;21.96;41.64;101222.41;4963720;28;45386;-60
2022/07/28 07:37:45;;;;;;;;;4.75;4.50;;;;;22.00;41.79;101226.47;4954423;28;45335;-60
2022/07/28 07:40:10;;;;;;;;;4.50;4.00;;;;;22.03;41.59;101219.94;4954672;28;45380;-59
2022/07/28 07:42:37;;;;;;;;;3.00;3.00;;;;;22.07;41.47;101225.84;4963479;28;45306;-59
2022/07/28 07:45:03;;;;;;;;;5.00;5.00;;;;;22.10;41.53;101221.03;4963657;28;45327;-59
2022/07/28 07:47:29;;;;;;;;;18.75;16.75;;;;;22.13;41.59;101222.59;4963119;28;45741;-59
2022/07/28 07:49:54;;;;;;;;;6.00;4.00;;;;;22.19;41.47;101216.59;4963380;28;45380;-59
2022/07/28 07:52:20;;;;;;;;;4.75;4.00;;;;;22.25;41.29;101215.97;4963209;28;45291;-59
2022/07/28 07:54:45;;;;;;;;;4.50;4.25;;;;;22.27;41.24;101212.13;4963477;28;45526;-59
2022/07/28 07:57:11;;;;;;;;;5.75;4.75;;;;;22.36;41.24;101223.81;4962996;28;47028;-60
2022/07/28 07:59:37;;;;;;;;;5.00;4.75;;;;;22.40;41.25;101218.94;4963389;28;45215;-59
2022/07/28 08:02:02;;;;;;;;;3.00;3.00;;;;;22.45;41.43;101219.34;4962744;28;45311;-59
2022/07/28 08:04:28;;;;;;;;;4.25;3.75;;;;;22.50;41.30;101219.69;4963238;28;45420;-59
2022/07/28 08:06:53;;;;;;;;;5.00;3.75;;;;;22.54;41.46;101216.53;4962467;28;45168;-59
2022/07/28 08:09:19;;;;;;;;;7.75;4.50;;;;;22.59;40.91;101224.09;4977991;28;45434;-60
2022/07/28 08:11:45;;;;;;;;;6.00;6.00;;;;;22.60;41.16;101215.09;4963165;28;45412;-60
2022/07/28 08:14:10;;;;;;;;;4.50;3.25;;;;;22.64;40.82;101213.75;4963183;28;45330;-59
2022/07/28 08:16:36;;;;;;;;;7.00;3.50;;;;;22.69;40.67;101206.06;4962662;28;45424;-60
2022/07/28 08:19:02;;;;;;;;;5.50;4.00;;;;;22.73;40.97;101202.06;4962527;28;45356;-61
2022/07/28 08:21:27;;;;;;;;;5.75;4.00;;;;;22.80;40.60;101202.25;4962804;28;45350;-59
2022/07/28 08:23:57;;;;;;;;;4.25;3.50;;;;;22.88;40.80;101206.88;4963093;28;45321;-59
2022/07/28 08:26:23;;;;;;;;;6.50;5.00;;;;;22.93;40.78;101207.25;4961265;28;47475;-59
2022/07/28 08:28:49;;;;;;;;;5.00;3.00;;;;;22.98;40.98;101204.91;4962526;28;45274;-59
2022/07/28 08:31:16;;;;;;;;;3.00;3.00;;;;;23.06;40.39;101213.00;4962530;28;45286;-59
2022/07/28 08:33:44;;;;;;;;;4.25;3.00;;;;;23.12;40.55;101207.84;4962727;28;45587;-59
2022/07/28 08:36:10;;;;;;;;;8.25;3.25;;;;;23.22;40.26;101198.81;4961828;28;45326;-59
2022/07/28 08:38:35;;;;;;;;;4.25;4.25;;;;;23.24;40.16;101200.34;4960840;28;45428;-60
2022/07/28 08:41:02;;;;;;;;;5.50;3.75;;;;;23.26;40.42;101200.19;4962730;28;45218;-59
2022/07/28 08:43:37;;;;;;;;;4.25;4.00;;;;;23.31;40.13;101198.69;4962754;28;45578;-59
2022/07/28 08:46:05;;;;;;;;;7.75;5.00;;;;;23.39;39.84;101196.03;4961878;28;45412;-59
2022/07/28 08:48:42;;;;;;;;;5.75;5.75;;;;;23.43;39.86;101193.84;4960950;28;45361;-60
2022/07/28 08:51:10;;;;;;;;;5.75;5.00;;;;;23.50;40.15;101197.56;4962130;28;45456;-59
2022/07/28 08:53:37;;;;;;;;;4.50;4.50;;;;;23.55;39.79;101195.25;4962099;28;45426;-59
2022/07/28 08:56:05;;;;;;;;;5.25;5.25;;;;;23.60;39.84;101194.75;4962114;28;46188;-59
2022/07/28 08:58:33;;;;;;;;;5.50;3.00;;;;;23.65;39.58;101201.34;4962119;28;46325;-60
2022/07/28 09:01:00;;;;;;;;;5.75;4.50;;;;;23.73;39.58;101200.50;4962231;28;45323;-59
2022/07/28 09:03:27;;;;;;;;;6.00;4.00;;;;;23.82;39.25;101202.22;4962231;28;45308;-60
2022/07/28 09:05:54;;;;;;;;;4.75;4.75;;;;;23.88;39.05;101198.84;4962001;28;46332;-59
2022/07/28 09:08:20;;;;;;;;;4.75;4.75;;;;;23.92;39.38;101197.50;4961910;28;46400;-59
2022/07/28 09:10:46;;;;;;;;;3.50;3.50;;;;;23.99;39.57;101199.53;4962246;28;45443;-59
2022/07/28 09:13:12;;;;;;;;;4.00;4.00;;;;;24.04;39.25;101189.13;4961340;28;45312;-59
2022/07/28 09:15:38;;;;;;;;;4.00;4.00;;;;;24.09;38.53;101192.13;4961758;28;45382;-59
2022/07/28 09:18:04;;;;;;;;;5.50;5.00;;;;;24.16;38.71;101188.59;4961522;28;45334;-59
2022/07/28 09:20:29;;;;;;;;;5.50;4.25;;;;;24.25;39.14;101194.81;4962206;28;45383;-60
2022/07/28 09:23:02;;;;;;;;;3.75;3.00;;;;;24.29;38.91;101187.25;4961873;28;45477;-59
2022/07/28 09:25:29;;;;;;;;;7.00;4.25;;;;;24.30;38.43;101186.25;4961797;28;45441;-60
2022/07/28 09:27:55;;;;;;;;;5.50;5.00;;;;;24.35;38.21;101184.78;4961827;28;45263;-60
2022/07/28 09:30:33;;;;;;;;;4.00;4.00;;;;;24.45;38.52;101192.66;4962039;28;45219;-60
2022/07/28 09:33:18;;;;;;;;;3.50;3.25;;;;;24.50;38.23;101191.16;4961710;28;45448;-59
2022/07/28 09:35:46;;;;;;;;;8.25;5.25;;;;;24.47;37.88;101185.25;4961348;28;45477;-59
2022/07/28 09:38:12;;;;;;;;;4.75;4.75;;;;;24.47;38.46;101177.16;4949360;28;45321;-59
2022/07/28 09:40:39;;;;;;;;;9.00;5.00;;;;;24.48;38.35;101190.44;4956392;28;45464;-60
2022/07/28 09:43:04;;;;;;;;;4.75;4.00;;;;;24.49;38.49;101181.38;4961784;28;45493;-60
2022/07/28 09:45:30;;;;;;;;;3.25;2.75;;;;;24.54;38.35;101186.25;4961607;28;45586;-60
2022/07/28 09:48:12;;;;;;;;;3.00;3.00;;;;;24.64;37.80;101175.28;4961542;28;45271;-59
2022/07/28 09:50:42;;;;;;;;;3.75;3.75;;;;;24.70;37.76;101174.59;4961622;28;45320;-60
2022/07/28 09:53:24;;;;;;;;;3.00;3.00;;;;;24.72;37.62;101173.41;4961679;28;45233;-59
2022/07/28 09:56:02;;;;;;;;;3.00;2.25;;;;;24.75;37.85;101174.94;4961081;28;45336;-60
2022/07/28 09:58:29;;;;;;;;;5.25;4.50;;;;;24.78;37.23;101164.63;4961386;28;45246;-60
2022/07/28 10:01:21;;;;;;;;;5.00;4.75;;;;;24.93;37.65;101169.31;4961475;28;45230;-59
2022/07/28 10:03:56;;;;;;;;;7.25;5.75;;;;;25.03;37.15;101170.81;4959284;28;45164;-60
2022/07/28 10:06:33;;;;;;;;;3.25;3.00;;;;;25.17;36.83;101174.63;4960882;28;45521;-60
2022/07/28 10:09:04;;;;;;;;;17.75;13.00;;;;;25.32;36.95;101170.16;4961189;28;45258;-60
2022/07/28 10:11:30;;;;;;;;;4.00;2.50;;;;;25.46;36.84;101167.75;4961188;28;45274;-60
2022/07/28 10:14:03;;;;;;;;;2.75;2.50;;;;;25.51;36.97;101168.03;4961501;28;45228;-60
2022/07/28 10:16:33;;;;;;;;;2.00;2.00;;;;;25.51;36.40;101171.56;4960584;28;46348;-60
2022/07/28 10:19:00;;;;;;;;;2.50;2.00;;;;;25.53;36.00;101171.41;4960814;28;45250;-60
2022/07/28 10:21:29;;;;;;;;;2.00;2.00;;;;;25.53;36.04;101166.88;4960990;28;45334;-58
2022/07/28 10:23:57;;;;;;;;;17.50;11.75;;;;;25.54;35.76;101157.75;4961218;28;45274;-58
2022/07/28 10:26:29;;;;;;;;;4.75;4.25;;;;;25.57;36.18;101167.34;4963780;28;45286;-58
2022/07/28 10:28:55;;;;;;;;;2.00;2.00;;;;;25.59;35.88;101165.28;4964495;28;45476;-58
2022/07/28 10:31:39;;;;;;;;;3.00;3.00;;;;;25.61;35.35;101168.66;4964268;28;45484;-58
2022/07/28 10:34:08;;;;;;;;;13.50;10.50;;;;;25.66;35.44;101160.84;4964434;28;45352;-59
2022/07/28 10:36:34;;;;;;;;;7.25;5.00;;;;;25.73;35.49;101155.63;4964072;28;46127;-59
2022/07/28 10:39:11;;;;;;;;;3.50;2.50;;;;;25.80;35.31;101161.97;4946472;28;45268;-59
2022/07/28 10:41:41;;;;;;;;;2.00;2.00;;;;;25.77;35.33;101138.91;4964420;28;45480;-59
2022/07/28 10:44:12;;;;;;;;;3.00;3.00;;;;;25.84;35.14;101141.72;4964119;28;45634;-59
2022/07/28 10:46:39;;;;;;;;;2.75;2.75;;;;;25.92;34.83;101148.91;4962339;28;46224;-59
2022/07/28 10:49:05;;;;;;;;;2.00;2.00;;;;;26.01;34.97;101156.75;4963948;28;45322;-59
2022/07/28 10:51:31;;;;;;;;;7.00;6.00;;;;;26.13;34.57;101149.06;4963703;28;45409;-59
2022/07/28 10:54:07;;;;;;;;;8.25;7.00;;;;;26.24;34.92;101145.94;4963780;28;45224;-59
2022/07/28 10:56:37;;;;;;;;;12.50;9.75;;;;;26.29;34.69;101146.19;4963697;28;45357;-59
2022/07/28 10:59:18;;;;;;;;;2.00;1.00;;;;;26.31;34.49;101146.88;4963609;28;45337;-59
2022/07/28 11:01:43;;;;;;;;;6.00;4.00;;;;;26.29;34.72;101148.06;4963535;28;45361;-59
2022/07/28 11:04:45;;;;;;;;;4.50;4.50;;;;;26.24;34.51;101147.78;4963842;28;45229;-59
2022/07/28 11:07:18;;;;;;;;;4.75;4.50;;;;;26.20;34.42;101141.06;4963298;28;45240;-59
2022/07/28 11:09:48;;;;;;;;;2.00;2.00;;;;;26.18;34.45;101146.66;4963573;28;45667;-59
2022/07/28 11:12:14;;;;;;;;;2.50;2.25;;;;;26.23;34.39;101143.38;4963809;28;45201;-59
2022/07/28 11:14:41;;;;;;;;;5.00;3.75;;;;;26.30;34.65;101147.03;4963475;28;45400;-59
2022/07/28 11:17:06;;;;;;;;;2.50;2.50;;;;;26.44;33.98;101148.94;4963121;28;45434;-59
2022/07/28 11:19:44;;;;;;;;;3.25;3.25;;;;;26.65;34.21;101148.25;4963236;28;45311;-59
2022/07/28 11:22:20;;;;;;;;;2.00;2.00;;;;;26.83;33.89;101151.41;4962199;28;45575;-59
2022/07/28 11:25:04;;;;;;;;;3.00;3.00;;;;;27.00;33.64;101146.63;4963524;28;45247;-59
2022/07/28 11:27:44;;;;;;;;;3.25;3.25;;;;;27.12;33.38;101136.22;4963596;28;45261;-59
2022/07/28 11:30:31;;;;;;;;;5.00;3.50;;;;;27.18;33.48;101141.69;4963538;28;45330;-59
2022/07/28 11:32:58;;;;;;;;;4.50;3.00;;;;;27.23;33.14;101143.81;4963169;28;45343;-59